Vila Rica, Brazil
Current Conditions -  °F | °C
As of 11:00 PM on Wednesday 22 Oct 2014 (Local Time) from SBPJ Reporting Station
Broken Clouds Broken Clouds  
Wind Chill: 73°   Ceiling: 7000
Heat Index: 73°   Visibility: 6mi
Dew Point: 70°   Wind: 3mph
Humidity: 88%   Direction: 90°E
Pressure: 29.97"   Gusts: NA
Location:  10.01°S, 51.12°W
Report Text: SBPJ 230200Z 09003KT 9999 SCT012 BKN070 23/21 Q1015
Loading
Personal Weather Stations






























Interactive Weather Map
Tropical Storm Tracking
New forecast layout! Learn more

10-Day Weather Forecast

Advertisements
Track Severe Weather on mobile